createdAt,value
2022-08-03T00:01:31.417Z,11.80
2022-08-03T00:03:58.267Z,14.10
2022-08-03T00:06:25.150Z,15.90
2022-08-03T00:08:52.214Z,15.10
2022-08-03T00:11:19.436Z,13.00
2022-08-03T00:13:46.712Z,12.20
2022-08-03T00:16:13.763Z,11.80
2022-08-03T00:18:40.933Z,11.60
2022-08-03T00:21:08.367Z,10.30
2022-08-03T00:23:52.858Z,11.30
2022-08-03T00:26:21.193Z,11.90
2022-08-03T00:28:48.684Z,12.60
2022-08-03T00:31:15.593Z,13.10
2022-08-03T00:33:59.442Z,13.70
2022-08-03T00:36:27.798Z,13.40
2022-08-03T00:38:55.600Z,12.60
2022-08-03T00:41:22.870Z,12.10
2022-08-03T00:43:50.010Z,12.40
2022-08-03T00:46:21.377Z,12.30
2022-08-03T00:48:50.451Z,12.30
2022-08-03T00:51:18.583Z,12.20
2022-08-03T00:53:46.166Z,11.20
2022-08-03T00:56:15.297Z,11.10
2022-08-03T00:58:45.099Z,12.20
2022-08-03T01:01:12.875Z,12.70
2022-08-03T01:03:40.339Z,12.00
2022-08-03T01:06:11.969Z,13.00
2022-08-03T01:09:10.277Z,12.20
2022-08-03T01:12:01.039Z,12.40
2022-08-03T01:14:44.364Z,13.20
2022-08-03T01:17:25.711Z,12.20
2022-08-03T01:20:10.239Z,13.30
2022-08-03T01:25:54.425Z,12.20
2022-08-03T01:28:28.539Z,12.20
2022-08-03T01:31:01.649Z,12.60
2022-08-03T01:33:50.528Z,11.80
2022-08-03T01:36:23.203Z,11.20
2022-08-03T01:38:55.337Z,11.80
2022-08-03T01:41:29.070Z,12.00
2022-08-03T01:44:28.150Z,12.20
2022-08-03T01:46:50.141Z,11.80
2022-08-03T01:49:18.345Z,11.60
2022-08-03T01:52:02.981Z,11.70
2022-08-03T01:54:41.912Z,11.10
2022-08-03T01:57:10.863Z,11.70
2022-08-03T01:59:40.328Z,11.10
2022-08-03T02:02:31.813Z,10.80
2022-08-03T02:04:57.900Z,12.00
2022-08-03T02:07:26.901Z,11.60
2022-08-03T02:09:55.711Z,11.20
2022-08-03T02:12:25.359Z,12.20
2022-08-03T02:14:53.980Z,12.30
2022-08-03T02:17:38.486Z,12.60
2022-08-03T02:20:09.984Z,11.60
2022-08-03T02:22:40.570Z,12.20
2022-08-03T02:25:10.450Z,12.30
2022-08-03T02:27:43.621Z,11.70
2022-08-03T02:30:12.696Z,12.10
2022-08-03T02:32:42.640Z,11.40
2022-08-03T02:35:13.582Z,12.80
2022-08-03T02:37:49.501Z,12.50
2022-08-03T02:40:19.401Z,11.70
2022-08-03T02:42:49.309Z,11.90
2022-08-03T02:45:20.001Z,11.40
2022-08-03T02:47:53.938Z,13.50
2022-08-03T02:50:23.488Z,14.00
2022-08-03T02:52:52.013Z,13.70
2022-08-03T02:55:21.716Z,13.30
2022-08-03T02:57:50.199Z,11.90
2022-08-03T03:00:19.504Z,11.90
2022-08-03T03:02:58.418Z,11.80
2022-08-03T03:05:52.665Z,12.90
2022-08-03T03:08:17.639Z,12.30
2022-08-03T03:10:46.777Z,12.50
2022-08-03T03:13:15.359Z,13.10
2022-08-03T03:15:45.008Z,12.70
2022-08-03T03:18:16.774Z,12.20
2022-08-03T03:23:14.039Z,11.20
2022-08-03T03:25:41.741Z,12.00
2022-08-03T03:28:11.682Z,12.40
2022-08-03T03:30:38.819Z,11.80
2022-08-03T03:33:05.954Z,12.20
2022-08-03T03:35:38.853Z,12.50
2022-08-03T03:38:07.419Z,12.10
2022-08-03T03:40:36.735Z,11.40
2022-08-03T03:43:07.508Z,10.80
2022-08-03T03:45:35.441Z,10.80
2022-08-03T03:48:05.048Z,11.50
2022-08-03T03:50:34.032Z,11.50
2022-08-03T03:53:02.216Z,11.90
2022-08-03T03:55:29.365Z,12.50
2022-08-03T03:57:56.581Z,12.40
2022-08-03T04:00:23.436Z,12.60
2022-08-03T04:02:50.267Z,12.80
2022-08-03T04:05:37.084Z,14.70
2022-08-03T04:08:30.434Z,13.70
2022-08-03T04:11:16.093Z,15.50
2022-08-03T04:13:55.383Z,13.40
2022-08-03T04:16:30.654Z,13.80
2022-08-03T04:19:09.534Z,14.50
2022-08-03T04:21:40.606Z,14.00
2022-08-03T04:24:10.963Z,13.90
2022-08-03T04:26:41.914Z,15.20
2022-08-03T04:29:11.096Z,15.10
2022-08-03T04:31:40.297Z,14.60
2022-08-03T04:34:07.915Z,14.50
2022-08-03T04:36:53.167Z,14.10
2022-08-03T04:39:26.610Z,14.90
2022-08-03T04:42:07.233Z,14.90
2022-08-03T04:44:45.318Z,14.90
2022-08-03T04:47:12.559Z,15.10
2022-08-03T04:49:40.694Z,16.90
2022-08-03T04:52:10.224Z,12.70
2022-08-03T04:54:50.317Z,12.30
2022-08-03T04:57:22.385Z,12.60
2022-08-03T05:00:01.401Z,12.10
2022-08-03T05:02:31.490Z,12.40
2022-08-03T05:04:59.150Z,11.80
2022-08-03T05:07:26.022Z,10.70
2022-08-03T05:09:57.599Z,11.80
2022-08-03T05:12:32.664Z,11.60
2022-08-03T05:15:00.888Z,12.10
2022-08-03T05:17:29.069Z,11.80
2022-08-03T05:19:56.567Z,13.10
2022-08-03T05:22:24.352Z,13.70
2022-08-03T05:24:51.407Z,12.40
2022-08-03T05:27:19.895Z,13.50
2022-08-03T05:29:47.879Z,13.80
2022-08-03T05:32:16.107Z,13.80
2022-08-03T05:34:43.804Z,13.80
2022-08-03T05:37:10.954Z,14.50
2022-08-03T05:39:38.320Z,14.20
2022-08-03T05:42:05.200Z,14.50
2022-08-03T05:44:32.287Z,14.10
2022-08-03T05:46:59.665Z,13.50
2022-08-03T05:49:26.625Z,14.60
2022-08-03T05:52:00.656Z,14.90
2022-08-03T05:54:55.998Z,13.20
2022-08-03T05:59:53.887Z,12.30
2022-08-03T06:02:27.433Z,11.60
2022-08-03T06:04:54.721Z,11.30
2022-08-03T06:07:21.870Z,11.60
2022-08-03T06:10:35.229Z,12.90
2022-08-03T06:12:36.429Z,12.40
2022-08-03T06:15:05.281Z,12.90
2022-08-03T06:17:37.374Z,13.00
2022-08-03T06:20:06.060Z,12.30
2022-08-03T06:22:32.909Z,13.40
2022-08-03T06:25:04.132Z,13.40
2022-08-03T06:27:36.534Z,12.80
2022-08-03T06:30:07.057Z,12.70
2022-08-03T06:32:34.024Z,12.10
2022-08-03T06:35:01.352Z,11.70
2022-08-03T06:37:28.947Z,11.80
2022-08-03T06:39:57.710Z,11.50
2022-08-03T06:42:24.702Z,10.90
2022-08-03T06:44:52.299Z,10.60
2022-08-03T06:47:19.142Z,11.10
2022-08-03T06:50:12.658Z,10.30
2022-08-03T06:52:37.507Z,11.20
2022-08-03T06:55:06.423Z,11.10
2022-08-03T06:57:33.479Z,10.60
2022-08-03T07:00:07.494Z,10.00
2022-08-03T07:02:40.057Z,10.40
2022-08-03T07:05:08.093Z,11.10
2022-08-03T07:07:35.092Z,10.50
2022-08-03T07:10:02.609Z,10.50
2022-08-03T07:12:31.033Z,10.40
2022-08-03T07:15:01.676Z,10.40
2022-08-03T07:17:31.701Z,9.80
2022-08-03T07:20:00.101Z,9.80
2022-08-03T07:22:27.341Z,9.40
2022-08-03T07:24:54.305Z,10.20
2022-08-03T07:27:23.667Z,10.20
2022-08-03T07:29:50.612Z,10.00
2022-08-03T07:32:17.677Z,10.20
2022-08-03T07:34:44.884Z,9.50
2022-08-03T07:37:11.885Z,9.30
2022-08-03T07:39:38.724Z,9.00
2022-08-03T07:42:05.783Z,9.30
2022-08-03T07:44:32.736Z,9.00
2022-08-03T07:47:00.099Z,8.00
2022-08-03T07:49:30.722Z,8.30
2022-08-03T07:52:13.494Z,8.30
2022-08-03T07:54:40.335Z,7.60
2022-08-03T07:57:07.138Z,7.50
2022-08-03T07:59:56.609Z,7.00
2022-08-03T08:02:22.278Z,7.00
2022-08-03T08:04:49.116Z,7.20
2022-08-03T08:07:16.362Z,7.10
2022-08-03T08:09:45.210Z,6.90
2022-08-03T08:12:15.564Z,6.60
2022-08-03T08:14:45.931Z,6.00
2022-08-03T08:17:13.502Z,5.30
2022-08-03T08:19:43.793Z,6.90
2022-08-03T08:22:22.404Z,6.10
2022-08-03T08:24:57.134Z,5.70
2022-08-03T08:27:24.013Z,6.20
2022-08-03T08:29:55.169Z,6.10
2022-08-03T08:32:23.389Z,6.10
2022-08-03T08:34:50.233Z,6.30
2022-08-03T08:37:17.232Z,6.40
2022-08-03T08:39:44.048Z,7.50
2022-08-03T08:42:11.003Z,7.10
2022-08-03T08:44:37.840Z,7.00
2022-08-03T08:47:04.919Z,7.50
2022-08-03T08:49:36.112Z,6.80
2022-08-03T08:52:25.017Z,6.90
2022-08-03T08:54:57.288Z,7.10
2022-08-03T08:57:42.271Z,8.20
2022-08-03T09:00:14.894Z,7.90
2022-08-03T09:02:44.131Z,7.40
2022-08-03T09:05:13.280Z,6.80
2022-08-03T09:07:41.378Z,7.70
2022-08-03T09:10:13.315Z,6.70
2022-08-03T09:12:46.142Z,7.20
2022-08-03T09:15:20.312Z,6.80
2022-08-03T09:17:51.063Z,7.00
2022-08-03T09:20:20.528Z,6.30
2022-08-03T09:23:19.010Z,6.40
2022-08-03T09:25:58.518Z,6.70
2022-08-03T09:29:00.140Z,6.00
2022-08-03T09:31:31.611Z,6.70
2022-08-03T09:34:01.406Z,6.10
2022-08-03T09:36:44.807Z,6.70
2022-08-03T09:39:13.994Z,6.30
2022-08-03T09:41:44.454Z,6.10
2022-08-03T09:44:24.694Z,5.90
2022-08-03T09:46:56.438Z,5.60
2022-08-03T09:49:24.559Z,5.30
2022-08-03T09:52:31.494Z,6.20
2022-08-03T09:54:39.741Z,6.40
2022-08-03T09:57:06.595Z,6.40
2022-08-03T09:59:35.025Z,5.80
2022-08-03T10:02:02.184Z,5.90
2022-08-03T10:04:30.125Z,6.70
2022-08-03T10:07:12.654Z,6.50
2022-08-03T10:09:54.428Z,5.70
2022-08-03T10:12:22.144Z,6.30
2022-08-03T10:14:49.226Z,6.10
2022-08-03T10:17:16.477Z,6.10
2022-08-03T10:19:43.650Z,5.90
2022-08-03T10:22:19.527Z,5.60
2022-08-03T10:24:54.256Z,6.00
2022-08-03T10:27:24.370Z,5.50
2022-08-03T10:29:55.364Z,4.80
2022-08-03T10:32:28.818Z,5.00
2022-08-03T10:35:19.730Z,5.30
2022-08-03T10:37:56.879Z,5.80
2022-08-03T10:40:47.605Z,5.90
2022-08-03T10:43:20.763Z,5.70
2022-08-03T10:45:47.891Z,6.10
2022-08-03T10:48:15.996Z,5.50
2022-08-03T10:50:44.778Z,6.10
2022-08-03T10:53:11.707Z,6.20
2022-08-03T10:56:00.403Z,5.70
2022-08-03T10:58:57.718Z,6.00
2022-08-03T11:01:58.254Z,5.70
2022-08-03T11:04:26.872Z,5.30
2022-08-03T11:07:18.442Z,5.30
2022-08-03T11:09:49.922Z,5.10
2022-08-03T11:12:33.248Z,5.20
2022-08-03T11:15:05.004Z,5.30
2022-08-03T11:17:33.919Z,5.00
2022-08-03T11:20:14.931Z,4.30
2022-08-03T11:22:51.234Z,4.70
2022-08-03T11:25:53.128Z,4.70
2022-08-03T11:28:28.746Z,4.60
2022-08-03T11:30:55.861Z,4.10
2022-08-03T11:33:31.230Z,4.90
2022-08-03T11:36:00.327Z,4.00
2022-08-03T11:38:27.345Z,4.50
2022-08-03T11:40:54.946Z,4.30
2022-08-03T11:43:26.754Z,4.50
2022-08-03T11:46:00.461Z,4.20
2022-08-03T11:48:34.156Z,4.50
2022-08-03T11:51:01.943Z,5.20
2022-08-03T11:53:29.338Z,4.80
2022-08-03T11:55:59.995Z,4.10
2022-08-03T11:59:10.698Z,3.70
2022-08-03T12:01:21.264Z,4.10
2022-08-03T12:03:50.327Z,4.10
2022-08-03T12:06:19.177Z,4.20
2022-08-03T12:08:46.772Z,4.60
2022-08-03T12:11:15.982Z,4.50
2022-08-03T12:14:36.707Z,4.00
2022-08-03T12:16:31.349Z,4.00
2022-08-03T12:19:00.797Z,4.50
2022-08-03T12:21:29.042Z,4.50
2022-08-03T12:24:00.673Z,4.50
2022-08-03T12:26:29.337Z,4.60
2022-08-03T12:28:56.349Z,4.60
2022-08-03T12:31:23.364Z,5.00
2022-08-03T12:34:08.400Z,5.20
2022-08-03T12:36:36.397Z,5.70
2022-08-03T12:39:08.232Z,4.90
2022-08-03T12:41:38.939Z,4.90
2022-08-03T12:44:08.582Z,4.70
2022-08-03T12:46:37.404Z,4.90
2022-08-03T12:49:15.676Z,4.80
2022-08-03T12:51:43.430Z,4.50
2022-08-03T12:54:16.765Z,4.30
2022-08-03T12:57:01.702Z,4.80
2022-08-03T12:59:34.878Z,4.50
2022-08-03T13:02:09.507Z,4.40
2022-08-03T13:04:37.092Z,3.90
2022-08-03T13:07:06.869Z,3.80
2022-08-03T13:09:43.766Z,4.10
2022-08-03T13:12:12.332Z,3.50
2022-08-03T13:14:39.333Z,4.30
2022-08-03T13:17:07.228Z,4.10
2022-08-03T13:19:36.463Z,4.00
2022-08-03T13:22:20.317Z,3.40
2022-08-03T13:24:50.131Z,4.00
2022-08-03T13:28:02.538Z,4.10
2022-08-03T13:30:06.303Z,3.80
2022-08-03T13:32:33.745Z,4.10
2022-08-03T13:35:02.617Z,4.20
2022-08-03T13:37:32.647Z,4.50
2022-08-03T13:40:04.492Z,4.30
2022-08-03T13:42:33.698Z,4.40
2022-08-03T13:45:01.457Z,4.40
2022-08-03T13:47:29.270Z,4.20
2022-08-03T13:50:01.468Z,4.30
2022-08-03T13:52:31.797Z,4.30
2022-08-03T13:54:58.984Z,4.30
2022-08-03T13:58:11.350Z,4.70
2022-08-03T14:00:13.404Z,4.60
2022-08-03T14:02:57.249Z,4.40
2022-08-03T14:05:30.387Z,4.30
2022-08-03T14:08:04.149Z,4.30
2022-08-03T14:10:33.654Z,4.30
2022-08-03T14:13:00.664Z,4.90
2022-08-03T14:15:28.788Z,4.60
2022-08-03T14:17:58.401Z,4.80
2022-08-03T14:20:36.699Z,5.00
2022-08-03T14:23:07.290Z,5.10
2022-08-03T14:25:43.678Z,5.40
2022-08-03T14:28:21.384Z,4.90
2022-08-03T14:30:48.782Z,4.50
2022-08-03T14:33:16.027Z,4.90
2022-08-03T14:35:43.371Z,4.40
2022-08-03T14:38:10.235Z,4.80
2022-08-03T14:40:37.077Z,5.30
2022-08-03T14:43:04.059Z,4.50
2022-08-03T14:45:31.305Z,5.20
2022-08-03T14:50:34.937Z,5.30
2022-08-03T14:50:51.833Z,4.60
2022-08-03T14:53:20.179Z,5.10
2022-08-03T14:55:51.514Z,5.20
2022-08-03T14:58:22.083Z,5.10
2022-08-03T15:00:50.881Z,5.00
2022-08-03T15:03:23.425Z,5.10
2022-08-03T15:05:53.799Z,5.10
2022-08-03T15:08:36.766Z,5.10
2022-08-03T15:11:03.781Z,4.90
2022-08-03T15:13:31.855Z,5.10
2022-08-03T15:15:58.762Z,5.20
2022-08-03T15:18:25.623Z,5.20
2022-08-03T15:20:52.403Z,5.30
2022-08-03T15:23:19.629Z,5.40
2022-08-03T15:26:04.089Z,4.70
2022-08-03T15:28:34.836Z,5.60
2022-08-03T15:31:05.681Z,5.10
2022-08-03T15:33:33.124Z,5.30
2022-08-03T15:36:02.465Z,4.90
2022-08-03T15:38:29.332Z,5.40
2022-08-03T15:40:56.272Z,5.20
2022-08-03T15:43:23.940Z,5.10
2022-08-03T15:46:12.838Z,4.80
2022-08-03T15:48:39.402Z,4.90
2022-08-03T15:51:06.992Z,4.90
2022-08-03T15:53:34.794Z,5.40
2022-08-03T15:56:06.342Z,5.30
2022-08-03T15:59:09.395Z,5.20
2022-08-03T16:01:25.451Z,5.10
2022-08-03T16:03:52.674Z,5.10
2022-08-03T16:06:29.875Z,5.00
2022-08-03T16:09:01.833Z,5.00
2022-08-03T16:11:28.690Z,5.80
2022-08-03T16:14:11.924Z,4.80
2022-08-03T16:16:42.307Z,5.20
2022-08-03T16:19:09.358Z,5.40
2022-08-03T16:21:42.048Z,5.40
2022-08-03T16:24:17.469Z,5.20
2022-08-03T16:26:50.055Z,5.10
2022-08-03T16:29:23.653Z,4.90
2022-08-03T16:31:51.668Z,5.10
2022-08-03T16:34:19.092Z,5.10
2022-08-03T16:36:45.975Z,5.30
2022-08-03T16:39:12.931Z,5.10
2022-08-03T16:41:54.303Z,5.00
2022-08-03T16:44:27.518Z,5.20
2022-08-03T16:46:54.673Z,4.90
2022-08-03T16:49:53.287Z,5.10
2022-08-03T16:52:08.337Z,5.20
2022-08-03T16:54:35.275Z,5.40
2022-08-03T16:57:02.224Z,5.10
2022-08-03T16:59:36.069Z,5.00
2022-08-03T17:02:09.911Z,5.10
2022-08-03T17:04:37.189Z,5.10
2022-08-03T17:07:08.814Z,5.40
2022-08-03T17:09:38.300Z,5.60
2022-08-03T17:12:07.588Z,6.00
2022-08-03T17:14:38.592Z,5.60
2022-08-03T17:17:16.310Z,5.80
2022-08-03T17:19:47.250Z,5.90
2022-08-03T17:22:19.111Z,5.80
2022-08-03T17:24:49.972Z,5.80
2022-08-03T17:28:50.422Z,5.70
2022-08-03T17:30:15.274Z,5.80
2022-08-03T17:32:57.341Z,6.00
2022-08-03T17:35:36.479Z,6.50
2022-08-03T17:38:11.904Z,6.00
2022-08-03T17:40:43.094Z,6.00
2022-08-03T17:44:16.026Z,5.90
2022-08-03T17:46:10.562Z,6.00
2022-08-03T17:48:41.467Z,6.50
2022-08-03T17:51:17.279Z,6.50
2022-08-03T17:53:51.151Z,6.50
2022-08-03T17:56:42.627Z,7.00
2022-08-03T17:59:52.240Z,6.10
2022-08-03T18:02:47.820Z,6.60
2022-08-03T18:05:17.727Z,7.00
2022-08-03T18:07:47.902Z,6.70
2022-08-03T18:10:23.107Z,6.60
2022-08-03T18:12:54.933Z,6.80
2022-08-03T18:15:27.236Z,7.00
2022-08-03T18:18:02.675Z,8.60
2022-08-03T18:20:40.977Z,8.20
2022-08-03T18:23:11.436Z,8.20
2022-08-03T18:25:58.222Z,7.80
2022-08-03T18:30:55.299Z,7.70
2022-08-03T18:34:19.924Z,7.70
2022-08-03T18:36:21.553Z,7.30
2022-08-03T18:38:51.834Z,6.70
2022-08-03T18:41:33.694Z,6.80
2022-08-03T18:44:08.283Z,6.90
2022-08-03T18:47:06.841Z,7.10
2022-08-03T18:50:00.904Z,7.10
2022-08-03T18:52:29.410Z,7.50
2022-08-03T18:55:19.894Z,7.70
2022-08-03T18:57:59.739Z,7.90
2022-08-03T19:00:42.344Z,8.30
2022-08-03T19:03:24.981Z,9.10
2022-08-03T19:06:16.028Z,7.30
2022-08-03T19:08:50.321Z,8.60
2022-08-03T19:11:28.025Z,8.20
2022-08-03T19:13:59.693Z,8.20
2022-08-03T19:16:34.764Z,9.10
2022-08-03T19:19:02.439Z,8.70
2022-08-03T19:21:31.378Z,8.10
2022-08-03T19:24:09.513Z,7.90
2022-08-03T19:26:39.663Z,7.80
2022-08-03T19:29:14.900Z,8.90
2022-08-03T19:31:54.429Z,8.60
2022-08-03T19:34:30.561Z,9.20
2022-08-03T19:36:58.851Z,10.90
2022-08-03T19:39:25.926Z,9.50
2022-08-03T19:41:58.466Z,10.90
2022-08-03T19:44:37.938Z,10.20
2022-08-03T19:47:11.368Z,11.00
2022-08-03T19:50:04.827Z,10.40
2022-08-03T19:52:38.035Z,10.70
2022-08-03T19:55:12.139Z,10.50
2022-08-03T19:57:43.262Z,10.40
2022-08-03T20:00:13.998Z,10.80
2022-08-03T20:02:41.480Z,10.80
2022-08-03T20:05:14.909Z,9.70
2022-08-03T20:07:47.777Z,9.60
2022-08-03T20:10:17.466Z,9.90
2022-08-03T20:12:47.542Z,9.80
2022-08-03T20:15:18.061Z,10.10
2022-08-03T20:17:56.771Z,11.30
2022-08-03T20:20:33.424Z,10.40
2022-08-03T20:23:13.838Z,11.60
2022-08-03T20:25:48.751Z,10.30
2022-08-03T20:28:30.815Z,11.80
2022-08-03T20:30:59.870Z,13.50
2022-08-03T20:33:27.885Z,14.30
2022-08-03T20:36:15.907Z,12.20
2022-08-03T20:38:47.125Z,12.10
2022-08-03T20:41:15.830Z,11.70
2022-08-03T20:43:43.003Z,12.20
2022-08-03T20:46:29.535Z,13.40
2022-08-03T20:48:58.832Z,14.20
2022-08-03T20:51:50.678Z,14.90
2022-08-03T20:54:22.792Z,13.80
2022-08-03T20:57:03.567Z,14.40
2022-08-03T20:59:47.013Z,14.20
2022-08-03T21:02:28.732Z,14.00
2022-08-03T21:05:03.526Z,13.80
2022-08-03T21:08:04.179Z,15.00
2022-08-03T21:10:31.235Z,16.10
2022-08-03T21:13:17.844Z,16.30
2022-08-03T21:16:06.861Z,16.80
2022-08-03T21:18:41.078Z,18.80
2022-08-03T21:21:10.294Z,18.50
2022-08-03T21:23:48.829Z,17.30
2022-08-03T21:26:18.955Z,16.70
2022-08-03T21:28:47.813Z,15.90
2022-08-03T21:31:24.660Z,16.00
2022-08-03T21:33:58.001Z,17.40
2022-08-03T21:36:27.898Z,16.20
2022-08-03T21:38:57.407Z,15.20
2022-08-03T21:41:29.138Z,15.50
2022-08-03T21:43:56.911Z,14.50
2022-08-03T21:46:26.624Z,14.60
2022-08-03T21:49:51.994Z,15.50
2022-08-03T21:51:49.254Z,16.10
2022-08-03T21:54:17.968Z,14.80
2022-08-03T21:56:48.552Z,14.80
2022-08-03T21:59:17.736Z,13.60
2022-08-03T22:01:49.193Z,12.60
2022-08-03T22:04:50.315Z,13.90
2022-08-03T22:07:08.139Z,13.60
2022-08-03T22:09:36.538Z,14.00
2022-08-03T22:12:04.135Z,15.50
2022-08-03T22:14:34.530Z,14.10
2022-08-03T22:17:06.313Z,13.90
2022-08-03T22:19:34.279Z,13.20
2022-08-03T22:22:06.205Z,13.10
2022-08-03T22:24:36.664Z,12.80
2022-08-03T22:27:19.996Z,13.30
2022-08-03T22:29:47.262Z,13.90
2022-08-03T22:32:14.160Z,13.10
2022-08-03T22:34:46.343Z,12.30
2022-08-03T22:37:16.652Z,12.60
2022-08-03T22:39:44.712Z,12.20
2022-08-03T22:42:12.063Z,11.70
2022-08-03T22:44:39.851Z,12.70
2022-08-03T22:47:07.313Z,11.90
2022-08-03T22:49:35.666Z,12.30
2022-08-03T22:52:02.709Z,12.00
2022-08-03T22:54:32.345Z,10.60
2022-08-03T22:56:59.836Z,11.00
2022-08-03T22:59:39.161Z,10.90
2022-08-03T23:02:20.918Z,11.90
2022-08-03T23:04:52.519Z,11.70
2022-08-03T23:07:27.645Z,11.20
2022-08-03T23:09:56.330Z,11.90
2022-08-03T23:12:23.685Z,11.50
2022-08-03T23:14:54.780Z,10.60
2022-08-03T23:17:24.412Z,10.50
2022-08-03T23:19:53.677Z,10.00
2022-08-03T23:22:29.572Z,10.40
2022-08-03T23:24:59.564Z,10.90
2022-08-03T23:27:27.560Z,11.90
2022-08-03T23:29:56.831Z,11.10
2022-08-03T23:32:26.460Z,11.00
2022-08-03T23:35:12.465Z,10.40
2022-08-03T23:38:04.277Z,10.00
2022-08-03T23:40:30.984Z,10.90
2022-08-03T23:42:58.492Z,11.20
2022-08-03T23:45:27.616Z,12.10
2022-08-03T23:47:55.023Z,11.50
2022-08-03T23:50:21.911Z,10.40
2022-08-03T23:52:50.435Z,10.10
2022-08-03T23:55:39.679Z,10.30
2022-08-03T23:58:12.942Z,11.30
